Time;durP1;ratioP1;P1;durP2;ratioP2;P2;SDS_P1;SDS_P2;PMS_P1;PMS_P2;Temp;Humidity;BMP_temperature;BMP_pressure;BME280_temperature;BME280_humidity;BME280_pressure;Samples;Min_cycle;Max_cycle;Signal;HPM_P1;HPM_P2
2022/07/07 00:00:42;;;;;;;;;2.00;2.00;;;;;18.67;100.00;102127.84;4987694;28;46687;-88
2022/07/07 00:03:07;;;;;;;;;2.00;2.00;;;;;18.66;100.00;102133.31;4989849;28;45481;-91
2022/07/07 00:05:38;;;;;;;;;2.00;2.00;;;;;18.59;100.00;102142.88;5008739;28;44731;-92
2022/07/07 00:08:05;;;;;;;;;3.00;3.00;;;;;18.63;100.00;102128.19;4977148;28;44946;-91
2022/07/07 00:10:31;;;;;;;;;2.40;2.40;;;;;18.63;100.00;102136.28;4993888;28;45458;-92
2022/07/07 00:12:57;;;;;;;;;1.00;1.00;;;;;18.66;100.00;102128.81;4992930;28;45082;-92
2022/07/07 00:15:22;;;;;;;;;2.00;2.00;;;;;18.68;100.00;102128.69;4992413;28;44787;-91
2022/07/07 00:17:48;;;;;;;;;2.25;2.25;;;;;18.62;100.00;102121.13;5010699;28;44916;-91
2022/07/07 00:20:14;;;;;;;;;5.00;2.50;;;;;18.57;100.00;102129.53;4995464;28;46792;-91
2022/07/07 00:22:47;;;;;;;;;2.75;2.25;;;;;18.59;100.00;102132.09;4998338;28;44734;-92
2022/07/07 00:25:13;;;;;;;;;5.00;4.00;;;;;18.56;100.00;102124.25;4997398;28;44743;-92
2022/07/07 00:27:39;;;;;;;;;1.50;1.50;;;;;18.54;100.00;102104.69;4993396;28;44883;-91
2022/07/07 00:30:05;;;;;;;;;1.50;1.50;;;;;18.60;100.00;102113.13;4993886;28;45332;-90
2022/07/07 00:32:31;;;;;;;;;4.00;4.00;;;;;18.58;100.00;102106.19;4994652;28;44864;-90
2022/07/07 00:34:57;;;;;;;;;2.25;2.25;;;;;18.55;100.00;102112.66;5002795;28;44814;-91
2022/07/07 00:37:22;;;;;;;;;2.00;2.00;;;;;18.52;100.00;102120.09;5014128;28;44779;-90
2022/07/07 00:39:47;;;;;;;;;2.25;2.25;;;;;18.52;100.00;102107.53;5009731;28;45604;-88
2022/07/07 00:42:16;;;;;;;;;3.25;3.25;;;;;18.56;100.00;102110.81;5004944;28;44630;-88
2022/07/07 00:44:43;;;;;;;;;3.00;1.20;;;;;18.52;100.00;102109.31;5002880;28;45395;-88
2022/07/07 00:47:09;;;;;;;;;2.20;1.20;;;;;18.56;100.00;102100.03;4987030;28;44811;-88
2022/07/07 00:49:38;;;;;;;;;3.60;3.60;;;;;18.59;100.00;102092.59;5010391;28;45020;-88
2022/07/07 00:52:07;;;;;;;;;2.20;2.20;;;;;18.60;100.00;102098.81;5009156;28;45251;-89
2022/07/07 00:54:33;;;;;;;;;3.20;3.00;;;;;18.54;100.00;102084.03;5009494;28;44738;-88
2022/07/07 00:56:58;;;;;;;;;5.00;2.60;;;;;18.45;100.00;102100.91;5008796;28;45373;-88
2022/07/07 00:59:24;;;;;;;;;1.00;1.00;;;;;18.39;100.00;102091.47;5008739;28;45177;-88
2022/07/07 01:01:49;;;;;;;;;3.00;3.00;;;;;18.37;100.00;102090.75;4991072;28;45330;-87
2022/07/07 01:04:17;;;;;;;;;3.25;3.25;;;;;18.38;100.00;102084.38;4990548;28;45345;-87
2022/07/07 01:06:42;;;;;;;;;2.20;1.20;;;;;18.32;100.00;102084.84;5004200;28;45349;-87
2022/07/07 01:09:09;;;;;;;;;3.00;2.75;;;;;18.32;100.00;102073.22;5004430;28;45210;-87
2022/07/07 01:11:55;;;;;;;;;2.00;2.00;;;;;18.29;100.00;102073.47;5006878;28;44746;-90
2022/07/07 01:14:23;;;;;;;;;3.80;3.80;;;;;18.31;100.00;102067.00;4995876;28;44847;-91
2022/07/07 01:16:49;;;;;;;;;2.20;1.80;;;;;18.32;100.00;102068.69;5005288;28;44975;-91
2022/07/07 01:19:15;;;;;;;;;2.60;2.60;;;;;18.30;100.00;102072.50;4989281;28;45035;-92
2022/07/07 01:21:52;;;;;;;;;4.40;3.60;;;;;18.27;100.00;102064.66;4992661;28;44864;-92
2022/07/07 01:24:19;;;;;;;;;2.00;2.00;;;;;18.20;100.00;102073.22;5009374;28;44821;-92
2022/07/07 01:26:44;;;;;;;;;4.80;2.40;;;;;18.16;100.00;102068.19;4992885;28;44845;-91
2022/07/07 01:29:10;;;;;;;;;2.25;2.25;;;;;18.09;100.00;102061.59;4994786;28;44932;-92
2022/07/07 01:31:36;;;;;;;;;2.00;2.00;;;;;18.10;100.00;102064.16;5022902;28;44640;-92
2022/07/07 01:34:01;;;;;;;;;1.00;1.00;;;;;18.10;100.00;102069.53;4978132;28;45309;-92
2022/07/07 01:36:29;;;;;;;;;2.00;2.00;;;;;18.00;100.00;102076.59;4986400;28;44970;-91
2022/07/07 01:38:54;;;;;;;;;3.00;3.00;;;;;17.98;100.00;102062.41;4991283;28;45146;-92
2022/07/07 01:41:20;;;;;;;;;3.00;3.00;;;;;17.94;100.00;102059.09;4989467;28;44712;-91
2022/07/07 01:43:45;;;;;;;;;2.75;2.75;;;;;17.92;100.00;102054.81;4996412;28;44833;-92
2022/07/07 01:46:11;;;;;;;;;3.00;3.00;;;;;17.90;100.00;102057.63;4997802;28;44855;-92
2022/07/07 01:48:36;;;;;;;;;1.25;1.25;;;;;17.94;100.00;102056.41;4987565;28;45108;-93
2022/07/07 01:51:03;;;;;;;;;3.25;3.25;;;;;17.98;100.00;102062.41;5002231;28;44707;-92
2022/07/07 01:53:50;;;;;;;;;2.60;2.60;;;;;18.00;100.00;102057.78;5001130;28;44625;-93
2022/07/07 01:56:16;;;;;;;;;3.00;3.00;;;;;18.00;100.00;102051.53;5002874;28;45268;-91
2022/07/07 01:58:42;;;;;;;;;2.50;2.50;;;;;17.94;100.00;102052.88;4983975;28;47191;-92
2022/07/07 02:01:08;;;;;;;;;3.75;3.75;;;;;17.96;100.00;102053.59;5007974;28;44697;-90
2022/07/07 02:03:34;;;;;;;;;3.80;3.80;;;;;17.96;100.00;102057.16;4989238;28;44815;-92
2022/07/07 02:05:59;;;;;;;;;2.25;2.25;;;;;17.93;100.00;102051.13;4991640;28;44919;-91
2022/07/07 02:08:25;;;;;;;;;4.25;3.25;;;;;17.89;100.00;102045.16;4989675;28;45388;-92
2022/07/07 02:13:34;;;;;;;;;1.00;0.00;;;;;17.84;100.00;102043.78;5004645;28;45461;-88
2022/07/07 02:15:59;;;;;;;;;3.00;3.00;;;;;17.78;100.00;102041.56;5000996;28;44970;-86
2022/07/07 02:18:25;;;;;;;;;3.50;3.50;;;;;17.78;100.00;102036.19;5006755;28;45332;-91
2022/07/07 02:20:51;;;;;;;;;3.00;3.00;;;;;17.81;100.00;102030.59;5005743;28;44789;-91
2022/07/07 02:23:16;;;;;;;;;2.75;2.75;;;;;17.82;100.00;102030.47;5007543;28;45235;-91
2022/07/07 02:25:41;;;;;;;;;5.50;3.00;;;;;17.83;100.00;102025.94;4991332;28;45193;-91
2022/07/07 02:28:07;;;;;;;;;2.00;0.25;;;;;17.82;100.00;102032.31;5000365;28;45262;-91
2022/07/07 02:30:33;;;;;;;;;1.75;1.75;;;;;17.78;100.00;102028.97;4984706;28;44709;-92
2022/07/07 02:32:58;;;;;;;;;5.00;4.00;;;;;17.83;100.00;102031.31;4984026;28;45245;-88
2022/07/07 02:35:24;;;;;;;;;3.00;3.00;;;;;17.84;100.00;102038.41;5006277;28;44838;-87
2022/07/07 02:37:49;;;;;;;;;1.00;1.00;;;;;17.75;100.00;102033.75;5008430;28;46496;-88
2022/07/07 02:40:15;;;;;;;;;2.25;1.75;;;;;17.64;100.00;102029.16;5009616;28;45354;-88
2022/07/07 02:42:40;;;;;;;;;3.00;3.00;;;;;17.63;100.00;102028.28;4984384;28;45302;-88
2022/07/07 02:45:07;;;;;;;;;2.50;2.50;;;;;17.62;100.00;102031.97;4982357;28;45244;-91
2022/07/07 02:47:33;;;;;;;;;2.60;2.60;;;;;17.57;100.00;102035.97;4989857;28;45461;-91
2022/07/07 02:49:59;;;;;;;;;1.00;1.00;;;;;17.57;100.00;102020.69;5010498;28;44686;-91
2022/07/07 02:52:25;;;;;;;;;2.00;2.00;;;;;17.54;100.00;102036.19;5006909;28;44813;-87
2022/07/07 02:54:53;;;;;;;;;3.50;3.50;;;;;17.47;100.00;102031.28;5024599;28;44824;-91
2022/07/07 02:57:18;;;;;;;;;4.00;4.00;;;;;17.46;100.00;102039.47;5008703;28;45265;-91
2022/07/07 02:59:44;;;;;;;;;3.25;3.00;;;;;17.49;100.00;102033.84;5020062;28;44649;-92
2022/07/07 03:02:09;;;;;;;;;2.00;2.00;;;;;17.37;100.00;102035.66;4993766;28;45160;-91
2022/07/07 03:04:35;;;;;;;;;4.00;4.00;;;;;17.44;100.00;102028.81;4999374;28;44947;-92
2022/07/07 03:07:00;;;;;;;;;2.75;2.75;;;;;17.43;100.00;102028.94;5013028;28;45219;-92
2022/07/07 03:09:26;;;;;;;;;5.00;3.00;;;;;17.36;100.00;102033.09;4975626;28;44712;-93
2022/07/07 03:11:51;;;;;;;;;3.50;3.50;;;;;17.27;100.00;102031.09;4990620;28;44987;-93
2022/07/07 03:14:17;;;;;;;;;2.00;1.75;;;;;17.30;100.00;102028.16;5009071;28;44942;-91
2022/07/07 03:16:42;;;;;;;;;5.00;3.75;;;;;17.34;100.00;102032.31;5009194;28;45000;-91
2022/07/07 03:19:08;;;;;;;;;2.00;2.00;;;;;17.29;100.00;102032.66;4985160;28;44763;-88
2022/07/07 03:21:33;;;;;;;;;5.00;3.75;;;;;17.29;100.00;102031.81;4981825;28;44773;-88
2022/07/07 03:24:18;;;;;;;;;5.00;5.00;;;;;17.30;100.00;102049.63;4984452;28;45188;-92
2022/07/07 03:26:45;;;;;;;;;2.00;2.00;;;;;17.30;100.00;102041.56;4987331;28;45161;-90
2022/07/07 03:29:10;;;;;;;;;2.00;1.60;;;;;17.29;100.00;102037.19;5006117;28;44684;-92
2022/07/07 03:31:37;;;;;;;;;3.50;3.50;;;;;17.34;100.00;102035.00;4989271;28;44847;-93
2022/07/07 03:34:04;;;;;;;;;2.20;2.20;;;;;17.32;100.00;102032.44;5009405;28;44906;-92
2022/07/07 03:36:30;;;;;;;;;1.80;1.80;;;;;17.22;100.00;102031.41;5008670;28;45192;-88
2022/07/07 03:38:55;;;;;;;;;6.75;3.25;;;;;17.28;100.00;102035.47;4991935;28;45202;-91
2022/07/07 03:41:22;;;;;;;;;3.00;3.00;;;;;17.25;100.00;102039.22;5020206;28;44732;-90
2022/07/07 03:43:47;;;;;;;;;4.00;4.00;;;;;17.25;100.00;102033.00;5019532;28;44930;-91
2022/07/07 03:46:14;;;;;;;;;4.50;4.50;;;;;17.23;100.00;102029.59;5004161;28;45200;-90
2022/07/07 03:48:39;;;;;;;;;5.20;4.40;;;;;17.18;100.00;102032.63;4997540;28;44795;-86
2022/07/07 03:51:05;;;;;;;;;4.00;4.00;;;;;17.14;100.00;102023.91;4991950;28;45183;-88
2022/07/07 03:53:30;;;;;;;;;7.00;5.25;;;;;17.12;100.00;102027.72;5006780;28;44802;-87
2022/07/07 03:55:56;;;;;;;;;3.25;3.00;;;;;17.18;100.00;102024.56;5023292;28;45470;-87
2022/07/07 03:58:21;;;;;;;;;4.25;4.25;;;;;17.17;100.00;102023.72;5004169;28;45451;-88
2022/07/07 04:00:46;;;;;;;;;3.25;3.25;;;;;17.15;100.00;102032.84;4995851;28;44870;-88
2022/07/07 04:03:12;;;;;;;;;4.00;4.00;;;;;17.11;100.00;102023.28;4986194;28;45422;-88
2022/07/07 04:05:37;;;;;;;;;6.25;4.50;;;;;17.12;100.00;102027.72;5005030;28;45399;-87
2022/07/07 04:08:03;;;;;;;;;4.25;4.25;;;;;17.14;100.00;102018.56;5007050;28;45148;-88
2022/07/07 04:10:28;;;;;;;;;3.50;3.50;;;;;17.14;100.00;102026.59;4987403;28;44763;-88
2022/07/07 04:12:54;;;;;;;;;6.25;4.00;;;;;17.21;100.00;102024.31;5004808;28;45353;-88
2022/07/07 04:15:20;;;;;;;;;5.75;4.00;;;;;17.26;100.00;102032.91;4974110;28;47086;-88
2022/07/07 04:17:46;;;;;;;;;3.50;3.50;;;;;17.25;100.00;102016.91;4986382;28;45216;-88
2022/07/07 04:20:11;;;;;;;;;2.75;2.75;;;;;17.34;100.00;102019.75;5012157;28;44911;-88
2022/07/07 04:22:37;;;;;;;;;6.75;3.25;;;;;17.39;100.00;102030.16;5008428;28;44932;-87
2022/07/07 04:25:03;;;;;;;;;6.75;4.75;;;;;17.38;100.00;102031.97;5028086;28;45264;-88
2022/07/07 04:27:29;;;;;;;;;4.20;4.20;;;;;17.29;100.00;102023.75;5031283;28;44754;-91
2022/07/07 04:29:54;;;;;;;;;3.00;3.00;;;;;17.36;100.00;102033.94;5009413;28;45286;-91
2022/07/07 04:32:20;;;;;;;;;7.25;6.25;;;;;17.28;100.00;102022.91;5007812;28;44970;-92
2022/07/07 04:34:45;;;;;;;;;3.00;3.00;;;;;17.30;100.00;102015.56;5023549;28;46217;-92
2022/07/07 04:37:11;;;;;;;;;2.75;2.50;;;;;17.47;100.00;102022.38;5006473;28;44844;-89
2022/07/07 04:39:36;;;;;;;;;5.00;4.00;;;;;17.57;100.00;102026.09;5004562;28;45299;-88
2022/07/07 04:42:02;;;;;;;;;1.00;1.00;;;;;17.57;100.00;102034.13;5025023;28;45283;-88
2022/07/07 04:44:28;;;;;;;;;4.60;4.60;;;;;17.60;100.00;102033.91;5023490;28;45338;-88
2022/07/07 04:46:53;;;;;;;;;5.50;3.50;;;;;17.59;100.00;102034.88;5015518;28;44696;-87
2022/07/07 04:49:19;;;;;;;;;5.25;4.00;;;;;17.59;100.00;102034.00;5001150;28;44826;-87
2022/07/07 04:51:44;;;;;;;;;5.75;4.25;;;;;17.57;100.00;102039.50;5002206;28;45398;-89
2022/07/07 04:54:09;;;;;;;;;7.50;3.25;;;;;17.61;100.00;102043.69;5003964;28;45351;-88
2022/07/07 04:56:35;;;;;;;;;6.00;4.00;;;;;17.60;100.00;102050.03;4985177;28;44800;-88
2022/07/07 04:59:01;;;;;;;;;5.00;5.00;;;;;17.55;100.00;102046.84;4989407;28;44713;-87
2022/07/07 05:01:26;;;;;;;;;4.00;4.00;;;;;17.43;100.00;102053.97;5009874;28;45184;-89
2022/07/07 05:03:51;;;;;;;;;7.75;5.75;;;;;17.44;100.00;102058.38;5008198;28;45319;-88
2022/07/07 05:06:17;;;;;;;;;8.25;5.00;;;;;17.48;100.00;102061.69;4995226;28;44751;-89
2022/07/07 05:08:42;;;;;;;;;3.75;2.00;;;;;17.43;100.00;102053.97;5006417;28;45306;-88
2022/07/07 05:11:08;;;;;;;;;6.75;6.25;;;;;17.40;100.00;102072.16;5005710;28;45718;-88
2022/07/07 05:13:33;;;;;;;;;6.50;6.50;;;;;17.45;100.00;102075.34;4990210;28;46611;-88
2022/07/07 05:15:59;;;;;;;;;4.00;4.00;;;;;17.34;100.00;102073.47;5006266;28;44736;-87
2022/07/07 05:18:24;;;;;;;;;7.75;5.50;;;;;17.37;100.00;102069.72;4987487;28;44832;-87
2022/07/07 05:20:50;;;;;;;;;8.00;6.00;;;;;17.42;100.00;102080.97;5021438;28;44938;-87
2022/07/07 05:23:17;;;;;;;;;5.00;4.00;;;;;17.43;100.00;102072.78;5029573;28;45422;-89
2022/07/07 05:25:43;;;;;;;;;6.60;6.60;;;;;17.42;100.00;102083.66;5030817;28;44853;-88
2022/07/07 05:28:08;;;;;;;;;4.75;3.75;;;;;17.43;100.00;102077.31;5025842;28;44842;-89
2022/07/07 05:30:33;;;;;;;;;8.25;7.00;;;;;17.50;100.00;102064.25;5003005;28;44853;-92
2022/07/07 05:32:59;;;;;;;;;3.00;2.00;;;;;17.58;100.00;102068.09;5005788;28;45222;-92
2022/07/07 05:35:24;;;;;;;;;6.50;6.00;;;;;17.55;100.00;102071.03;5007890;28;44744;-91
2022/07/07 05:46:26;;;;;;;;;6.20;4.40;;;;;17.54;100.00;102071.97;4989834;28;45043;-92
2022/07/07 05:52:35;;;;;;;;;7.80;7.00;;;;;17.63;100.00;102081.19;4990307;28;44917;-90
2022/07/07 05:55:00;;;;;;;;;5.20;5.20;;;;;17.61;100.00;102083.16;4986727;28;47143;-91
2022/07/07 05:57:50;;;;;;;;;6.25;4.50;;;;;17.68;100.00;102077.19;4988775;28;44770;-91
2022/07/07 06:00:25;;;;;;;;;5.00;5.00;;;;;17.76;100.00;102079.31;4989489;28;44820;-91
2022/07/07 06:02:54;;;;;;;;;7.50;7.00;;;;;17.83;100.00;102085.09;4987407;28;44908;-91
2022/07/07 06:05:23;;;;;;;;;4.00;4.00;;;;;17.78;100.00;102098.03;4985785;28;45037;-90
2022/07/07 06:07:53;;;;;;;;;5.60;3.60;;;;;17.82;100.00;102084.22;4984717;28;44791;-91
2022/07/07 06:10:22;;;;;;;;;2.40;2.40;;;;;17.83;100.00;102096.69;4981701;28;44794;-90
2022/07/07 06:13:03;;;;;;;;;3.80;3.40;;;;;17.79;100.00;102099.72;4990768;28;45192;-90
2022/07/07 06:15:38;;;;;;;;;2.80;1.40;;;;;17.87;100.00;102106.25;4992789;28;46935;-92
2022/07/07 06:18:43;;;;;;;;;3.60;3.00;;;;;17.77;100.00;102094.47;5013078;28;44771;-90
2022/07/07 06:21:45;;;;;;;;;4.60;4.60;;;;;18.03;100.00;102105.06;4982129;28;44721;-90
2022/07/07 06:24:18;;;;;;;;;8.60;5.00;;;;;18.17;100.00;102113.78;4957677;28;44953;-91
2022/07/07 06:26:43;;;;;;;;;4.60;4.00;;;;;18.21;100.00;102111.72;4956333;28;45024;-91
2022/07/07 06:29:09;;;;;;;;;4.25;4.25;;;;;18.13;100.00;102115.03;4971103;28;44703;-90
2022/07/07 06:31:37;;;;;;;;;2.00;2.00;;;;;18.05;100.00;102128.19;4968387;28;44863;-90
2022/07/07 06:34:03;;;;;;;;;6.00;6.00;;;;;18.16;100.00;102122.84;4968481;28;45441;-90
2022/07/07 06:36:36;;;;;;;;;3.25;3.25;;;;;18.18;100.00;102136.16;4964426;28;45442;-89
2022/07/07 06:39:04;;;;;;;;;5.60;4.40;;;;;18.14;100.00;102127.50;4945221;28;44752;-90
2022/07/07 06:41:34;;;;;;;;;2.20;2.20;;;;;18.31;100.00;102128.00;4960098;28;45544;-90
2022/07/07 06:51:25;;;;;;;;;4.60;4.20;;;;;18.29;100.00;102129.97;1789449;22;45219;-90
2022/07/07 06:54:11;;;;;;;;;3.60;2.20;;;;;18.35;100.00;102134.88;5024804;28;44905;-90
2022/07/07 06:56:36;;;;;;;;;9.40;5.00;;;;;18.46;100.00;102138.44;5011925;28;45068;-91
2022/07/07 06:59:35;;;;;;;;;7.50;5.50;;;;;18.45;100.00;102138.56;4998441;28;46794;-91
2022/07/07 07:02:42;;;;;;;;;4.20;4.20;;;;;18.53;100.00;102129.91;5003117;28;45438;-92
2022/07/07 07:05:08;;;;;;;;;6.40;5.00;;;;;18.63;100.00;102131.75;4906157;29;44696;-92
2022/07/07 07:07:33;;;;;;;;;2.25;2.25;;;;;18.75;100.00;102129.94;4909976;29;44912;-90
2022/07/07 07:10:28;;;;;;;;;7.25;4.75;;;;;18.83;100.00;102134.72;4895626;29;46358;-91
2022/07/07 07:12:53;;;;;;;;;1.60;1.60;;;;;18.81;100.00;102128.59;4904043;29;44855;-92
2022/07/07 07:16:19;;;;;;;;;4.50;4.25;;;;;18.90;100.00;102139.47;4905626;29;44794;-92
2022/07/07 07:25:27;;;;;;;;;5.00;5.00;;;;;19.19;100.00;102141.69;4854375;29;44734;-92
2022/07/07 07:31:28;;;;;;;;;6.00;4.00;;;;;19.28;100.00;102159.78;4886107;29;45379;-91
2022/07/07 07:34:30;;;;;;;;;7.60;5.00;;;;;19.46;100.00;102152.06;4886965;29;45222;-92
2022/07/07 07:53:47;;;;;;;;;2.00;2.00;;;;;20.52;100.00;102165.66;3269277;26;45358;-90
2022/07/07 07:56:12;;;;;;;;;6.25;5.00;;;;;20.18;100.00;102179.31;5038951;28;46091;-88
2022/07/07 07:58:39;;;;;;;;;2.00;2.00;;;;;20.25;100.00;102176.94;5023416;28;45380;-89
2022/07/07 08:01:05;;;;;;;;;6.00;4.20;;;;;20.28;100.00;102193.72;5025715;28;44906;-90
2022/07/07 08:03:38;;;;;;;;;7.00;3.75;;;;;20.61;100.00;102177.50;5044835;28;44868;-90
2022/07/07 08:06:03;;;;;;;;;2.40;1.80;;;;;21.02;100.00;102160.34;5026415;28;45183;-88
2022/07/07 08:08:29;;;;;;;;;4.00;4.00;;;;;21.18;100.00;102168.84;5024753;28;44801;-88
2022/07/07 08:10:54;;;;;;;;;0.50;0.50;;;;;20.90;100.00;102166.88;5027123;28;44900;-89
2022/07/07 08:13:20;;;;;;;;;2.25;2.25;;;;;20.99;100.00;102153.41;5026545;28;45018;-88
2022/07/07 08:15:47;;;;;;;;;5.25;5.25;;;;;21.32;100.00;102158.63;5023902;28;46605;-91
2022/07/07 08:18:12;;;;;;;;;5.80;5.80;;;;;21.43;100.00;102158.56;5023322;28;44755;-88
2022/07/07 08:20:38;;;;;;;;;4.00;2.25;;;;;21.44;100.00;102153.00;5041617;28;44703;-86
2022/07/07 08:23:04;;;;;;;;;4.40;3.40;;;;;21.22;100.00;102167.53;5039577;28;45191;-86
2022/07/07 08:25:30;;;;;;;;;3.00;2.00;;;;;21.53;100.00;102154.88;5052162;28;44970;-90
2022/07/07 08:28:00;;;;;;;;;6.40;3.40;;;;;22.01;100.00;102154.06;5058801;28;44771;-92
2022/07/07 08:30:46;;;;;;;;;2.00;2.00;;;;;22.28;100.00;102152.47;5059515;28;44762;-91
2022/07/07 08:33:17;;;;;;;;;4.20;3.20;;;;;22.25;100.00;102145.53;5037952;28;44843;-91
2022/07/07 08:35:45;;;;;;;;;3.80;3.60;;;;;22.04;100.00;102147.47;5052575;28;45052;-92
2022/07/07 08:38:10;;;;;;;;;2.00;2.00;;;;;21.92;100.00;102143.22;5050818;28;45249;-88
2022/07/07 08:40:46;;;;;;;;;2.00;1.00;;;;;21.65;100.00;102141.22;5025030;28;44889;-86
2022/07/07 08:50:28;;;;;;;;;2.60;2.60;;;;;21.61;100.00;102140.63;4963258;28;44866;-89
2022/07/07 08:52:55;;;;;;;;;2.00;2.00;;;;;21.85;100.00;102136.66;4961255;28;44879;-91
2022/07/07 08:58:51;;;;;;;;;5.60;1.00;;;;;22.40;100.00;102139.66;4967204;28;44866;-90
2022/07/07 09:02:08;;;;;;;;;2.00;2.00;;;;;22.11;100.00;102148.66;4947922;28;44690;-89
2022/07/07 09:15:40;;;;;;;;;3.20;1.00;;;;;21.89;100.00;102147.06;4963364;28;44689;-90
2022/07/07 09:22:11;;;;;;;;;0.20;0.20;;;;;22.69;100.00;102136.88;4972211;28;44725;-93
2022/07/07 09:28:48;;;;;;;;;2.60;1.60;;;;;22.43;100.00;102152.88;4947936;28;44702;-90
2022/07/07 09:41:19;;;;;;;;;0.60;0.60;;;;;22.63;100.00;102162.69;4889871;29;45268;-91
2022/07/07 09:47:24;;;;;;;;;4.40;1.20;;;;;22.61;100.00;102167.38;4830278;29;44855;-89
2022/07/07 09:50:17;;;;;;;;;1.60;1.60;;;;;22.67;100.00;102166.78;4834846;29;45189;-89
2022/07/07 09:52:45;;;;;;;;;4.00;3.00;;;;;22.58;100.00;102167.72;4829293;29;44853;-88
2022/07/07 09:55:11;;;;;;;;;1.00;1.00;;;;;22.45;100.00;102178.84;4841160;29;44796;-87
2022/07/07 09:57:39;;;;;;;;;2.60;2.00;;;;;22.40;100.00;102186.53;4870127;29;44884;-87
2022/07/07 10:00:06;;;;;;;;;1.80;1.80;;;;;22.15;100.00;102193.41;4868734;29;45281;-88
2022/07/07 10:02:31;;;;;;;;;2.20;2.00;;;;;21.83;100.00;102207.16;4906993;28;44754;-89
2022/07/07 10:05:00;;;;;;;;;3.00;3.00;;;;;21.98;100.00;102194.91;4927824;28;45436;-90
2022/07/07 10:07:30;;;;;;;;;4.80;3.00;;;;;21.89;100.00;102212.00;4918133;28;45384;-91
2022/07/07 10:10:08;;;;;;;;;4.40;3.00;;;;;21.95;100.00;102210.56;4899357;28;45191;-90
2022/07/07 10:12:37;;;;;;;;;2.00;2.00;;;;;21.83;100.00;102220.69;4926091;28;44788;-90
2022/07/07 10:15:11;;;;;;;;;2.40;2.00;;;;;21.68;100.00;102222.94;4923543;28;45242;-89
2022/07/07 10:17:37;;;;;;;;;1.00;1.00;;;;;21.52;100.00;102238.84;4978340;28;44905;-89
2022/07/07 10:20:06;;;;;;;;;1.00;1.00;;;;;21.47;100.00;102224.88;5003802;28;45709;-90
2022/07/07 10:22:34;;;;;;;;;3.40;2.00;;;;;21.24;100.00;102238.56;4985123;28;44817;-90
2022/07/07 10:25:02;;;;;;;;;3.40;3.40;;;;;21.20;100.00;102241.66;4986913;28;44731;-91
2022/07/07 10:27:28;;;;;;;;;0.00;0.00;;;;;21.13;100.00;102244.06;4992413;28;45514;-91
2022/07/07 10:29:59;;;;;;;;;2.00;2.00;;;;;21.23;100.00;102249.50;4990313;28;45532;-93
2022/07/07 10:36:02;;;;;;;;;1.00;1.00;;;;;21.17;100.00;102250.03;5002980;28;44686;-92
2022/07/07 10:38:34;;;;;;;;;2.20;2.20;;;;;21.22;100.00;102258.59;4985921;28;44859;-94
2022/07/07 10:41:20;;;;;;;;;3.40;2.00;;;;;21.42;100.00;102260.44;4988600;28;45194;-93
2022/07/07 10:44:45;;;;;;;;;1.00;1.00;;;;;21.44;100.00;102265.72;4991101;28;44847;-94
2022/07/07 10:58:03;;;;;;;;;1.00;1.00;;;;;22.11;100.00;102270.47;4937742;28;44588;-93
2022/07/07 11:00:31;;;;;;;;;2.00;2.00;;;;;22.22;100.00;102261.38;4939507;28;44826;-93
2022/07/07 11:03:26;;;;;;;;;2.20;2.20;;;;;22.44;100.00;102255.69;4926038;28;44888;-92
2022/07/07 11:06:03;;;;;;;;;2.00;2.00;;;;;22.00;100.00;102279.56;4907184;28;45009;-93
2022/07/07 11:08:38;;;;;;;;;3.00;3.00;;;;;21.74;100.00;102276.47;4875240;29;44788;-93
2022/07/07 11:13:46;;;;;;;;;2.00;2.00;;;;;21.78;100.00;102267.09;4995342;22;44880;-89
2022/07/07 11:16:21;;;;;;;;;2.00;2.00;;;;;21.84;100.00;102275.66;4990785;28;45311;-89
2022/07/07 11:18:56;;;;;;;;;1.00;1.00;;;;;21.73;100.00;102285.59;4992525;28;45323;-88
2022/07/07 11:21:41;;;;;;;;;2.80;2.80;;;;;21.69;100.00;102286.84;4984830;28;44672;-87
2022/07/07 11:24:19;;;;;;;;;4.00;4.00;;;;;21.75;100.00;102289.00;4998585;28;44920;-87
2022/07/07 11:26:55;;;;;;;;;2.00;2.00;;;;;21.74;100.00;102292.72;4998323;28;45371;-88
2022/07/07 11:29:21;;;;;;;;;2.80;2.80;;;;;21.86;100.00;102289.91;5001368;28;44751;-89
2022/07/07 11:31:46;;;;;;;;;3.25;2.75;;;;;21.87;100.00;102273.53;5002175;28;44760;-88
2022/07/07 11:34:12;;;;;;;;;3.25;2.00;;;;;21.89;100.00;102289.63;5002918;28;45038;-88
2022/07/07 11:36:38;;;;;;;;;2.80;1.80;;;;;22.32;100.00;102286.59;4999075;28;45255;-88
2022/07/07 11:39:06;;;;;;;;;3.00;3.00;;;;;22.70;100.00;102285.72;4998154;28;44785;-88
2022/07/07 11:41:44;;;;;;;;;4.00;4.00;;;;;22.67;100.00;102285.16;4984187;28;44810;-87
2022/07/07 11:44:18;;;;;;;;;3.00;3.00;;;;;22.37;100.00;102294.28;4965135;28;45314;-88
2022/07/07 11:46:47;;;;;;;;;3.60;3.60;;;;;22.25;100.00;102286.31;4945123;28;46886;-88
2022/07/07 11:49:16;;;;;;;;;1.80;1.80;;;;;22.46;100.00;102290.72;4964021;28;44777;-89
2022/07/07 11:51:43;;;;;;;;;2.00;2.00;;;;;22.43;100.00;102304.53;4966901;28;44756;-88
2022/07/07 11:54:09;;;;;;;;;3.40;3.40;;;;;22.57;100.00;102302.28;4966056;28;44725;-88
2022/07/07 11:56:35;;;;;;;;;5.00;4.00;;;;;22.70;100.00;102303.84;4962734;28;45319;-88
2022/07/07 11:59:02;;;;;;;;;3.60;3.60;;;;;22.73;100.00;102293.59;4944415;28;44958;-88
2022/07/07 12:01:36;;;;;;;;;3.20;2.80;;;;;22.94;100.00;102296.16;4950233;28;44779;-91
2022/07/07 12:04:23;;;;;;;;;3.00;3.00;;;;;23.20;100.00;102299.06;4949776;28;44904;-92
2022/07/07 12:06:51;;;;;;;;;2.60;1.00;;;;;23.38;100.00;102303.72;4965137;28;45283;-90
2022/07/07 12:09:17;;;;;;;;;3.80;3.20;;;;;23.55;100.00;102301.09;4965241;28;44763;-90
2022/07/07 12:11:43;;;;;;;;;2.75;2.75;;;;;23.32;100.00;102305.19;4950719;28;45189;-90
2022/07/07 12:14:11;;;;;;;;;2.80;2.80;;;;;23.12;100.00;102298.97;4967587;28;44756;-90
2022/07/07 12:16:46;;;;;;;;;3.60;2.20;;;;;23.10;100.00;102311.78;4946545;28;45411;-90
2022/07/07 12:19:12;;;;;;;;;0.00;0.00;;;;;23.14;100.00;102304.22;4947309;28;44643;-90
2022/07/07 12:21:55;;;;;;;;;3.20;3.20;;;;;23.09;100.00;102305.53;4965196;28;44763;-90
2022/07/07 12:24:24;;;;;;;;;1.00;1.00;;;;;22.92;100.00;102306.28;4960579;28;44755;-91
2022/07/07 12:26:51;;;;;;;;;6.00;3.40;;;;;22.69;100.00;102302.16;4966746;28;45075;-90
2022/07/07 12:29:21;;;;;;;;;3.20;3.20;;;;;22.54;100.00;102326.09;4948760;28;45435;-90
2022/07/07 12:31:49;;;;;;;;;2.00;2.00;;;;;22.53;100.00;102321.66;4970139;28;44780;-89
2022/07/07 12:34:18;;;;;;;;;4.00;3.00;;;;;22.75;100.00;102315.09;4955310;28;44872;-90
2022/07/07 12:36:44;;;;;;;;;3.20;2.20;;;;;22.86;100.00;102317.66;4980143;28;45120;-88
2022/07/07 12:39:10;;;;;;;;;3.00;3.00;;;;;23.04;100.00;102317.81;4956606;28;44771;-90
2022/07/07 12:41:37;;;;;;;;;3.00;2.00;;;;;22.74;100.00;102316.97;4972239;28;45227;-89
2022/07/07 12:44:22;;;;;;;;;2.00;2.00;;;;;22.66;100.00;102321.38;4951256;28;44845;-90
2022/07/07 12:46:48;;;;;;;;;6.80;5.00;;;;;22.71;100.00;102333.50;4948422;28;45461;-90
2022/07/07 12:49:14;;;;;;;;;2.80;2.80;;;;;22.40;100.00;102331.94;4972162;28;44759;-90
2022/07/07 12:51:45;;;;;;;;;5.00;4.00;;;;;22.22;100.00;102321.78;4955938;28;44691;-90
2022/07/07 12:54:25;;;;;;;;;1.80;1.80;;;;;22.23;100.00;102342.44;4951401;28;44918;-88
2022/07/07 12:57:05;;;;;;;;;3.20;2.80;;;;;21.93;100.00;102345.19;4961652;28;45296;-88
2022/07/07 12:59:44;;;;;;;;;1.20;1.20;;;;;21.93;100.00;102339.78;4944402;28;44748;-87
2022/07/07 13:02:14;;;;;;;;;2.40;2.40;;;;;22.10;100.00;102347.25;4968535;28;44744;-88
2022/07/07 13:04:42;;;;;;;;;3.60;3.00;;;;;22.10;100.00;102349.06;4983301;28;44854;-89
2022/07/07 13:07:08;;;;;;;;;2.60;2.60;;;;;21.97;100.00;102349.34;4984889;28;45355;-89
2022/07/07 13:09:33;;;;;;;;;2.00;2.00;;;;;22.17;100.00;102359.25;4962606;28;44692;-90
2022/07/07 13:11:59;;;;;;;;;2.25;2.25;;;;;22.46;100.00;102344.91;4949136;28;45328;-91
2022/07/07 13:14:24;;;;;;;;;1.00;1.00;;;;;22.78;100.00;102347.34;4950523;28;44821;-90
2022/07/07 13:16:50;;;;;;;;;2.50;2.00;;;;;23.03;100.00;102352.19;4969057;28;45034;-89